createdAt,value
2023-03-31T00:01:15.481Z,10.70
2023-03-31T00:06:19.381Z,10.60
2023-03-31T00:11:23.885Z,10.70
2023-03-31T00:16:26.837Z,10.50
2023-03-31T00:21:34.118Z,10.40
2023-03-31T00:26:37.923Z,10.30
2023-03-31T00:31:40.160Z,10.40
2023-03-31T00:36:46.103Z,10.50
2023-03-31T00:41:49.479Z,10.50
2023-03-31T00:46:55.218Z,10.20
2023-03-31T00:52:05.412Z,10.10
2023-03-31T00:57:11.058Z,10.00
2023-03-31T01:02:17.645Z,10.20
2023-03-31T01:07:25.965Z,10.20
2023-03-31T01:12:30.029Z,10.30
2023-03-31T01:17:33.108Z,10.10
2023-03-31T01:23:07.263Z,10.20
2023-03-31T01:28:18.085Z,10.40
2023-03-31T01:33:55.704Z,10.50
2023-03-31T01:39:39.936Z,10.90
2023-03-31T01:44:47.625Z,10.10
2023-03-31T01:49:57.507Z,9.80
2023-03-31T01:55:08.447Z,10.10
2023-03-31T02:00:15.355Z,10.00
2023-03-31T02:05:20.756Z,10.00
2023-03-31T02:10:24.324Z,10.10
2023-03-31T02:15:32.794Z,10.30
2023-03-31T02:20:35.369Z,10.40
2023-03-31T02:25:46.456Z,10.20
2023-03-31T02:30:57.636Z,10.30
2023-03-31T02:36:00.305Z,10.00
2023-03-31T02:41:02.976Z,10.00
2023-03-31T02:46:06.692Z,10.00
2023-03-31T02:51:48.984Z,10.00
2023-03-31T02:57:06.961Z,9.90
2023-03-31T03:02:19.104Z,10.00
2023-03-31T03:07:26.973Z,9.90
2023-03-31T03:12:35.555Z,9.80
2023-03-31T03:17:42.722Z,10.00
2023-03-31T03:22:47.022Z,9.90
2023-03-31T03:27:49.339Z,9.90
2023-03-31T03:32:54.819Z,9.80
2023-03-31T03:37:56.875Z,9.70
2023-03-31T03:42:59.238Z,9.60
2023-03-31T03:48:02.962Z,9.40
2023-03-31T03:53:05.114Z,9.60
2023-03-31T03:58:07.678Z,9.50
2023-03-31T04:03:11.232Z,9.70
2023-03-31T04:08:15.466Z,9.50
2023-03-31T04:13:19.129Z,9.40
2023-03-31T04:18:24.108Z,9.50
2023-03-31T04:23:26.916Z,9.50
2023-03-31T04:28:35.088Z,9.60
2023-03-31T04:33:40.209Z,9.70
2023-03-31T04:38:42.618Z,9.60
2023-03-31T04:43:45.601Z,9.60
2023-03-31T04:48:49.494Z,9.50
2023-03-31T04:53:52.310Z,9.50
2023-03-31T04:58:55.116Z,9.50
2023-03-31T05:03:58.804Z,9.50
2023-03-31T05:09:00.840Z,9.50
2023-03-31T05:14:03.195Z,9.40
2023-03-31T05:19:46.980Z,9.50
2023-03-31T05:25:25.195Z,9.70
2023-03-31T05:30:28.026Z,9.90
2023-03-31T05:35:31.702Z,10.10
2023-03-31T05:40:34.191Z,10.20
2023-03-31T05:45:36.541Z,10.50
2023-03-31T05:50:40.576Z,10.40
2023-03-31T05:55:42.477Z,10.60
2023-03-31T06:00:45.601Z,10.80
2023-03-31T06:05:50.739Z,10.80
2023-03-31T06:10:53.076Z,11.10
2023-03-31T06:15:56.968Z,11.40
2023-03-31T06:21:00.743Z,11.40
2023-03-31T06:26:05.191Z,11.70
2023-03-31T06:31:09.500Z,11.80
2023-03-31T06:36:15.784Z,11.80
2023-03-31T06:41:18.954Z,12.20
2023-03-31T06:46:21.427Z,12.20
2023-03-31T06:51:25.126Z,12.30
2023-03-31T06:56:28.500Z,12.40
2023-03-31T07:01:31.758Z,12.50
2023-03-31T07:06:35.800Z,12.70
2023-03-31T07:11:38.067Z,13.10
2023-03-31T07:16:40.077Z,13.20
2023-03-31T07:21:43.473Z,13.30
2023-03-31T07:26:45.690Z,13.70
2023-03-31T07:31:48.990Z,13.90
2023-03-31T07:36:53.084Z,13.90
2023-03-31T07:41:55.212Z,14.10
2023-03-31T07:46:58.894Z,14.10
2023-03-31T07:52:03.018Z,14.00
2023-03-31T07:57:06.491Z,13.70
2023-03-31T08:02:09.032Z,13.50
2023-03-31T08:07:14.383Z,12.70
2023-03-31T08:12:16.977Z,12.10
2023-03-31T08:17:19.522Z,11.70
2023-03-31T08:22:23.516Z,12.10
2023-03-31T08:27:26.322Z,11.60
2023-03-31T08:32:28.770Z,11.60
2023-03-31T08:37:32.541Z,11.30
2023-03-31T08:42:40.300Z,11.30
2023-03-31T08:47:43.316Z,11.20
2023-03-31T08:52:51.237Z,11.70
2023-03-31T08:58:01.218Z,11.80
2023-03-31T09:03:08.419Z,12.10
2023-03-31T09:08:21.893Z,12.20
2023-03-31T09:13:51.429Z,11.90
2023-03-31T09:18:56.423Z,11.80
2023-03-31T09:24:06.812Z,12.30
2023-03-31T09:29:19.387Z,12.70
2023-03-31T09:34:27.471Z,12.70
2023-03-31T09:39:31.250Z,12.70
2023-03-31T09:44:40.050Z,13.00
2023-03-31T09:49:53.809Z,13.20
2023-03-31T09:55:01.541Z,13.10
2023-03-31T10:00:13.842Z,13.30
2023-03-31T10:05:31.826Z,13.30
2023-03-31T10:10:35.706Z,13.20
2023-03-31T10:15:41.728Z,13.10
2023-03-31T10:20:50.374Z,12.90
2023-03-31T10:25:54.231Z,13.00
2023-03-31T10:31:01.657Z,13.00
2023-03-31T10:36:10.660Z,12.80
2023-03-31T10:41:19.162Z,12.60
2023-03-31T10:46:22.914Z,12.30
2023-03-31T10:51:29.133Z,12.30
2023-03-31T10:56:41.128Z,13.10
2023-03-31T11:01:55.652Z,13.00
2023-03-31T11:07:10.541Z,12.80
2023-03-31T11:12:22.874Z,13.20
2023-03-31T11:17:38.329Z,13.70
2023-03-31T11:22:52.984Z,14.10
2023-03-31T11:28:21.952Z,14.60
2023-03-31T11:34:00.835Z,14.20
2023-03-31T11:39:22.351Z,14.20
2023-03-31T11:44:28.857Z,14.30
2023-03-31T11:49:38.298Z,14.60
2023-03-31T11:54:44.911Z,16.00
2023-03-31T11:59:54.373Z,16.50
2023-03-31T12:04:58.122Z,16.20
2023-03-31T12:10:06.828Z,15.50
2023-03-31T12:15:18.555Z,16.00
2023-03-31T12:20:31.118Z,16.00
2023-03-31T12:25:46.770Z,15.70
2023-03-31T12:30:53.718Z,16.30
2023-03-31T12:36:16.733Z,17.60
2023-03-31T12:41:27.413Z,18.60
2023-03-31T12:47:06.433Z,17.20
2023-03-31T12:52:13.472Z,17.20
2023-03-31T12:57:21.144Z,18.30
2023-03-31T13:02:27.165Z,19.80
2023-03-31T13:07:42.631Z,21.20
2023-03-31T13:13:02.080Z,21.10
2023-03-31T13:18:08.244Z,20.30
2023-03-31T13:23:21.032Z,18.70
2023-03-31T13:28:29.250Z,15.10
2023-03-31T13:33:41.662Z,12.60
2023-03-31T13:38:52.417Z,11.80
2023-03-31T13:44:21.851Z,12.30
2023-03-31T13:49:48.879Z,12.80
2023-03-31T13:55:19.488Z,12.80
2023-03-31T14:00:38.564Z,14.40
2023-03-31T14:05:45.016Z,16.70
2023-03-31T14:10:47.146Z,16.10
2023-03-31T14:15:52.586Z,15.30
2023-03-31T14:21:21.498Z,15.00
2023-03-31T14:26:46.954Z,14.30
2023-03-31T14:31:56.187Z,12.20
2023-03-31T14:37:03.633Z,10.50
2023-03-31T14:42:12.213Z,10.70
2023-03-31T14:47:16.948Z,11.10
2023-03-31T14:52:24.660Z,11.60
2023-03-31T14:57:32.328Z,11.40
2023-03-31T15:02:37.714Z,11.30
2023-03-31T15:07:42.793Z,12.60
2023-03-31T15:12:45.256Z,13.70
2023-03-31T15:17:49.437Z,14.20
2023-03-31T15:22:53.770Z,14.70
2023-03-31T15:28:00.017Z,15.60
2023-03-31T15:33:15.971Z,16.40
2023-03-31T15:38:24.776Z,17.40
2023-03-31T15:43:32.068Z,18.20
2023-03-31T15:48:36.771Z,17.30
2023-03-31T15:53:46.545Z,16.50
2023-03-31T15:59:00.354Z,17.10
2023-03-31T16:04:04.029Z,17.90
2023-03-31T16:09:09.559Z,17.80
2023-03-31T16:14:20.935Z,15.80
2023-03-31T16:19:27.721Z,15.10
2023-03-31T16:24:34.745Z,14.50
2023-03-31T16:29:38.389Z,14.30
2023-03-31T16:34:58.170Z,14.10
2023-03-31T16:40:01.789Z,13.50
2023-03-31T16:45:13.727Z,12.40
2023-03-31T16:50:17.305Z,10.50
2023-03-31T16:55:21.522Z,10.80
2023-03-31T17:00:24.439Z,10.80
2023-03-31T17:05:27.770Z,11.40
2023-03-31T17:10:31.924Z,11.50
2023-03-31T17:15:36.690Z,11.30
2023-03-31T17:20:39.964Z,11.00
2023-03-31T17:25:49.091Z,11.00
2023-03-31T17:30:51.628Z,11.10
2023-03-31T17:35:59.636Z,11.30
2023-03-31T17:41:07.164Z,11.40
2023-03-31T17:46:12.835Z,11.40
2023-03-31T17:51:19.976Z,11.30
2023-03-31T17:56:27.432Z,11.30
2023-03-31T18:01:32.508Z,11.20
2023-03-31T18:06:35.924Z,10.80
2023-03-31T18:11:39.730Z,11.00
2023-03-31T18:16:46.204Z,10.70
2023-03-31T18:21:50.676Z,10.50
2023-03-31T18:26:55.312Z,10.60
2023-03-31T18:31:59.289Z,10.60
2023-03-31T18:37:04.053Z,10.60
2023-03-31T18:42:09.849Z,10.50
2023-03-31T18:47:27.533Z,10.60
2023-03-31T18:52:33.925Z,11.00
2023-03-31T18:57:39.124Z,11.60
2023-03-31T19:02:46.225Z,11.70
2023-03-31T19:07:54.308Z,11.70
2023-03-31T19:13:00.129Z,11.80
2023-03-31T19:18:06.711Z,11.90
2023-03-31T19:23:12.135Z,11.70
2023-03-31T19:28:26.358Z,11.20
2023-03-31T19:33:30.005Z,11.00
2023-03-31T19:38:38.530Z,10.90
2023-03-31T19:43:48.258Z,10.10
2023-03-31T19:48:51.929Z,9.30
2023-03-31T19:53:56.603Z,8.90
2023-03-31T19:59:00.678Z,9.00
2023-03-31T20:04:04.720Z,9.00
2023-03-31T20:09:13.109Z,8.80
2023-03-31T20:14:18.748Z,8.70
2023-03-31T20:19:23.917Z,8.70
2023-03-31T20:24:28.422Z,9.10
2023-03-31T20:29:34.445Z,9.00
2023-03-31T20:34:38.064Z,9.20
2023-03-31T20:39:41.426Z,9.30
2023-03-31T20:44:46.688Z,9.70
2023-03-31T20:49:49.751Z,10.00
2023-03-31T20:54:52.688Z,10.30
2023-03-31T20:59:57.445Z,10.00
2023-03-31T21:05:00.032Z,10.20
2023-03-31T21:10:02.159Z,10.40
2023-03-31T21:15:06.848Z,10.40
2023-03-31T21:20:10.313Z,10.30
2023-03-31T21:25:13.022Z,10.00
2023-03-31T21:30:19.555Z,10.00
2023-03-31T21:35:21.799Z,10.00
2023-03-31T21:40:24.085Z,9.60
2023-03-31T21:45:27.495Z,9.70
2023-03-31T21:50:30.295Z,9.70
2023-03-31T21:55:33.152Z,9.90
2023-03-31T22:00:37.677Z,10.00
2023-03-31T22:05:40.406Z,9.90
2023-03-31T22:10:42.397Z,9.80
2023-03-31T22:15:46.348Z,9.70
2023-03-31T22:20:49.729Z,9.70
2023-03-31T22:25:52.191Z,10.00
2023-03-31T22:30:55.945Z,10.00
2023-03-31T22:35:58.472Z,10.10
2023-03-31T22:41:00.810Z,10.10
2023-03-31T22:46:06.454Z,9.70
2023-03-31T22:51:09.078Z,9.40
2023-03-31T22:56:13.640Z,9.20
2023-03-31T23:01:19.553Z,8.90
2023-03-31T23:06:22.130Z,8.70
2023-03-31T23:11:24.457Z,8.60
2023-03-31T23:16:28.464Z,8.60
2023-03-31T23:21:30.934Z,8.60
2023-03-31T23:26:35.133Z,8.70
2023-03-31T23:31:38.837Z,8.60
2023-03-31T23:36:41.494Z,8.40
2023-03-31T23:41:43.762Z,8.40
2023-03-31T23:46:47.596Z,8.50
2023-03-31T23:51:49.582Z,8.60
2023-03-31T23:56:51.583Z,8.70
